Airfield :
LOGIN :

Register | Disclaimer

   EN    FR    IT 

 










Legend :    VFR   Marginal VFR   IFR   Intensive IFR   Very Intensive IFR
Visi :
Ceiling :
>= 8 km
>= 3000ft
5 to 8 km
1000 to 3000 ft
1500m to 5 km
500 to 1000 ft
800 to 1500m
200 to 500 ft
< 800m
< 200 ft
Symbols :   Thunderstorms  Fog  Heavy snow  Heavy precipitations  Wind > 20 kt
SIGMETs :     Misc.  Thunderstorms  Icing  Turbulence  Mountain Waves  Volcanic Ashes






- Airport Elevation : 433 ft
- IATA code : CCF


LFMK - Carcassonne

CURRENT METAR :
  • 211700Z AUTO 28008KT 9999 BKN084 15/10 Q1018 NOSIG

EXPIRED METARs :
  • 211630Z AUTO 27007KT 230V290 9999 BKN082 16/10 Q1018 NOSIG
  • 211600Z AUTO 26008KT 230V290 9999 SCT039 BKN082 17/11 Q1018 NOSIG
  • 211530Z AUTO 26008KT 230V290 9999 FEW068 OVC082 17/11 Q1019 NOSIG
  • 211500Z AUTO 26007KT 220V290 9999 BKN066 OVC080 17/11 Q1019 NOSIG
  • 211430Z AUTO 26009KT 230V290 9999 BKN066 OVC080 17/11 Q1019 NOSIG

TAF TAF LFMK
Valid from the 21 at 15:00 until the 22 at 15:00 UTC


211400Z 2115/2215 28010KT 9999 BKN040 BKN080
BECMG 2120/2122 CAVOK
PROB30
TEMPO 2200/2204 BKN013
BECMG 2204/2206 BKN035
PROB30
TEMPO 2209/2212 -RA BKN013



MET'MAP, your aeronautical weather chart ! - Copyright ORBIFLY December 2007 - Disclaimer

ORBIFLY MET'MAP TEAM :

Programming & Development : Alexandra Zaïnal
Concept & original design : Baudouin d'Aumeries
Assistance for programming : Marc-Olivier Méhu
Technical & hardware support : Manuel Goepfert

Contact : metmap@orbifly.com




SOURCES & CREDITS :

   NOAA